sensor_id;sensor_type;location;lat;lon;timestamp;pressure;altitude;pressure_sealevel;temperature;humidity
4705;BME280;2366;51.332;6.610;2022-12-24T00:02:10;100552.94;;;12.71;100.00
4705;BME280;2366;51.332;6.610;2022-12-24T00:04:35;100556.59;;;12.58;100.00
4705;BME280;2366;51.332;6.610;2022-12-24T00:07:00;100554.06;;;12.56;100.00
4705;BME280;2366;51.332;6.610;2022-12-24T00:09:26;100560.47;;;12.41;100.00
4705;BME280;2366;51.332;6.610;2022-12-24T00:11:51;100564.09;;;12.40;100.00
4705;BME280;2366;51.332;6.610;2022-12-24T00:14:16;100560.47;;;12.41;100.00
4705;BME280;2366;51.332;6.610;2022-12-24T00:16:42;100563.25;;;12.39;100.00
4705;BME280;2366;51.332;6.610;2022-12-24T00:19:07;100562.41;;;12.39;100.00
4705;BME280;2366;51.332;6.610;2022-12-24T00:21:32;100577.06;;;12.31;100.00
4705;BME280;2366;51.332;6.610;2022-12-24T00:23:58;100565.16;;;12.37;100.00
4705;BME280;2366;51.332;6.610;2022-12-24T00:26:23;100574.13;;;12.23;100.00
4705;BME280;2366;51.332;6.610;2022-12-24T00:28:49;100565.19;;;12.11;100.00
4705;BME280;2366;51.332;6.610;2022-12-24T00:31:16;100564.25;;;12.00;100.00
4705;BME280;2366;51.332;6.610;2022-12-24T00:33:44;100565.03;;;11.87;100.00
4705;BME280;2366;51.332;6.610;2022-12-24T00:36:10;100571.75;;;11.80;100.00
4705;BME280;2366;51.332;6.610;2022-12-24T00:38:35;100579.59;;;11.82;100.00
4705;BME280;2366;51.332;6.610;2022-12-24T00:41:03;100574.41;;;11.80;100.00
4705;BME280;2366;51.332;6.610;2022-12-24T00:43:29;100574.59;;;11.77;100.00
4705;BME280;2366;51.332;6.610;2022-12-24T00:45:55;100583.63;;;11.75;100.00
4705;BME280;2366;51.332;6.610;2022-12-24T00:48:21;100591.38;;;11.65;100.00
4705;BME280;2366;51.332;6.610;2022-12-24T00:50:48;100594.03;;;11.65;100.00
4705;BME280;2366;51.332;6.610;2022-12-24T00:53:14;100595.06;;;11.62;100.00
4705;BME280;2366;51.332;6.610;2022-12-24T00:55:39;100592.84;;;11.56;100.00
4705;BME280;2366;51.332;6.610;2022-12-24T00:58:05;100604.50;;;11.54;100.00
4705;BME280;2366;51.332;6.610;2022-12-24T01:00:30;100608.66;;;11.58;100.00
4705;BME280;2366;51.332;6.610;2022-12-24T01:02:56;100610.38;;;11.59;100.00
4705;BME280;2366;51.332;6.610;2022-12-24T01:05:21;100619.50;;;11.55;100.00
4705;BME280;2366;51.332;6.610;2022-12-24T01:07:47;100635.03;;;11.61;100.00
4705;BME280;2366;51.332;6.610;2022-12-24T01:10:15;100624.28;;;11.62;100.00
4705;BME280;2366;51.332;6.610;2022-12-24T01:12:41;100639.94;;;11.67;100.00
4705;BME280;2366;51.332;6.610;2022-12-24T01:15:07;100641.75;;;11.79;100.00
4705;BME280;2366;51.332;6.610;2022-12-24T01:17:34;100643.56;;;11.79;100.00
4705;BME280;2366;51.332;6.610;2022-12-24T01:20:00;100645.38;;;11.78;100.00
4705;BME280;2366;51.332;6.610;2022-12-24T01:22:26;100652.06;;;11.71;100.00
4705;BME280;2366;51.332;6.610;2022-12-24T01:24:51;100646.94;;;11.68;100.00
4705;BME280;2366;51.332;6.610;2022-12-24T01:27:17;100661.38;;;11.64;100.00
4705;BME280;2366;51.332;6.610;2022-12-24T01:29:42;100657.97;;;11.62;100.00
4705;BME280;2366;51.332;6.610;2022-12-24T01:32:08;100660.53;;;11.63;100.00
4705;BME280;2366;51.332;6.610;2022-12-24T01:34:33;100654.91;;;11.68;100.00
4705;BME280;2366;51.332;6.610;2022-12-24T01:36:59;100659.47;;;11.66;100.00
4705;BME280;2366;51.332;6.610;2022-12-24T01:39:24;100670.94;;;11.66;100.00
4705;BME280;2366;51.332;6.610;2022-12-24T01:41:50;100674.47;;;11.67;100.00
4705;BME280;2366;51.332;6.610;2022-12-24T01:44:37;100674.94;;;11.86;100.00
4705;BME280;2366;51.332;6.610;2022-12-24T01:47:11;100673.22;;;11.85;100.00
4705;BME280;2366;51.332;6.610;2022-12-24T01:49:41;100666.72;;;11.77;100.00
4705;BME280;2366;51.332;6.610;2022-12-24T01:52:17;100659.69;;;11.63;100.00
4705;BME280;2366;51.332;6.610;2022-12-24T01:54:48;100674.66;;;11.64;100.00
4705;BME280;2366;51.332;6.610;2022-12-24T01:57:30;100673.34;;;11.57;100.00
4705;BME280;2366;51.332;6.610;2022-12-24T02:00:03;100667.16;;;11.43;100.00
4705;BME280;2366;51.332;6.610;2022-12-24T02:02:29;100675.50;;;11.37;100.00
4705;BME280;2366;51.332;6.610;2022-12-24T02:07:23;100684.78;;;11.44;100.00
4705;BME280;2366;51.332;6.610;2022-12-24T02:09:52;100696.16;;;11.46;100.00
4705;BME280;2366;51.332;6.610;2022-12-24T02:12:20;100692.56;;;11.47;100.00
4705;BME280;2366;51.332;6.610;2022-12-24T02:14:45;100690.28;;;11.41;100.00
4705;BME280;2366;51.332;6.610;2022-12-24T02:17:30;100699.59;;;11.34;100.00
4705;BME280;2366;51.332;6.610;2022-12-24T02:26:22;100708.53;;;11.19;100.00
4705;BME280;2366;51.332;6.610;2022-12-24T02:30:56;100722.84;;;11.16;100.00
4705;BME280;2366;51.332;6.610;2022-12-24T02:33:32;100722.97;;;11.15;100.00
4705;BME280;2366;51.332;6.610;2022-12-24T02:36:09;100728.28;;;11.15;100.00
4705;BME280;2366;51.332;6.610;2022-12-24T02:38:48;100729.13;;;11.15;100.00
4705;BME280;2366;51.332;6.610;2022-12-24T02:41:19;100727.09;;;11.19;100.00
4705;BME280;2366;51.332;6.610;2022-12-24T02:43:49;100730.06;;;11.14;100.00
4705;BME280;2366;51.332;6.610;2022-12-24T02:46:20;100737.84;;;11.17;100.00
4705;BME280;2366;51.332;6.610;2022-12-24T02:48:46;100742.94;;;11.20;100.00
4705;BME280;2366;51.332;6.610;2022-12-24T02:51:12;100747.41;;;11.20;100.00
4705;BME280;2366;51.332;6.610;2022-12-24T02:53:39;100747.19;;;11.23;100.00
4705;BME280;2366;51.332;6.610;2022-12-24T02:56:12;100741.50;;;11.29;100.00
4705;BME280;2366;51.332;6.610;2022-12-24T02:58:58;100732.69;;;11.28;100.00
4705;BME280;2366;51.332;6.610;2022-12-24T03:01:45;100750.59;;;11.25;100.00
4705;BME280;2366;51.332;6.610;2022-12-24T03:10:08;100751.88;;;11.19;100.00
4705;BME280;2366;51.332;6.610;2022-12-24T03:12:43;100751.38;;;11.27;100.00
4705;BME280;2366;51.332;6.610;2022-12-24T03:15:13;100753.44;;;11.36;100.00
4705;BME280;2366;51.332;6.610;2022-12-24T03:17:41;100761.16;;;11.54;100.00
4705;BME280;2366;51.332;6.610;2022-12-24T03:20:10;100752.00;;;11.72;100.00
4705;BME280;2366;51.332;6.610;2022-12-24T03:22:39;100757.53;;;11.96;100.00
4705;BME280;2366;51.332;6.610;2022-12-24T03:25:04;100755.13;;;12.06;100.00
4705;BME280;2366;51.332;6.610;2022-12-24T03:27:31;100760.66;;;12.16;100.00
4705;BME280;2366;51.332;6.610;2022-12-24T03:29:58;100766.13;;;12.27;100.00
4705;BME280;2366;51.332;6.610;2022-12-24T03:32:27;100776.03;;;12.38;100.00
4705;BME280;2366;51.332;6.610;2022-12-24T03:34:54;100776.78;;;12.40;100.00
4705;BME280;2366;51.332;6.610;2022-12-24T03:37:20;100772.09;;;12.43;100.00
4705;BME280;2366;51.332;6.610;2022-12-24T03:39:46;100774.84;;;12.42;100.00
4705;BME280;2366;51.332;6.610;2022-12-24T03:42:11;100774.78;;;12.56;100.00
4705;BME280;2366;51.332;6.610;2022-12-24T03:44:37;100779.97;;;12.70;100.00
4705;BME280;2366;51.332;6.610;2022-12-24T03:47:02;100768.72;;;12.67;98.44
4705;BME280;2366;51.332;6.610;2022-12-24T03:49:27;100779.97;;;12.83;100.00
4705;BME280;2366;51.332;6.610;2022-12-24T03:51:53;100784.47;;;12.83;97.64
4705;BME280;2366;51.332;6.610;2022-12-24T03:54:18;100788.38;;;12.90;97.78
4705;BME280;2366;51.332;6.610;2022-12-24T03:56:44;100784.69;;;12.92;96.68
4705;BME280;2366;51.332;6.610;2022-12-24T03:59:09;100789.44;;;13.00;96.25
4705;BME280;2366;51.332;6.610;2022-12-24T04:01:35;100789.22;;;13.03;95.24
4705;BME280;2366;51.332;6.610;2022-12-24T04:04:00;100789.88;;;13.07;94.71
4705;BME280;2366;51.332;6.610;2022-12-24T04:06:26;100792.03;;;13.02;93.08
4705;BME280;2366;51.332;6.610;2022-12-24T04:08:51;100795.53;;;13.02;92.44
4705;BME280;2366;51.332;6.610;2022-12-24T04:11:17;100797.88;;;12.94;90.75
4705;BME280;2366;51.332;6.610;2022-12-24T04:13:42;100795.00;;;12.97;90.58
4705;BME280;2366;51.332;6.610;2022-12-24T04:16:10;100796.50;;;13.01;90.83
4705;BME280;2366;51.332;6.610;2022-12-24T04:18:37;100800.84;;;13.02;90.29
4705;BME280;2366;51.332;6.610;2022-12-24T04:21:03;100803.00;;;12.97;89.58
4705;BME280;2366;51.332;6.610;2022-12-24T04:23:33;100802.75;;;12.87;89.03
4705;BME280;2366;51.332;6.610;2022-12-24T04:26:00;100806.81;;;12.93;89.59
4705;BME280;2366;51.332;6.610;2022-12-24T04:28:27;100806.69;;;12.94;89.31
4705;BME280;2366;51.332;6.610;2022-12-24T04:30:57;100811.06;;;12.95;88.81
4705;BME280;2366;51.332;6.610;2022-12-24T04:33:23;100819.25;;;13.05;88.94
4705;BME280;2366;51.332;6.610;2022-12-24T04:35:48;100817.13;;;13.10;88.24
4705;BME280;2366;51.332;6.610;2022-12-24T04:38:13;100824.88;;;13.13;88.40
4705;BME280;2366;51.332;6.610;2022-12-24T04:40:39;100820.53;;;13.12;88.02
4705;BME280;2366;51.332;6.610;2022-12-24T04:43:04;100822.47;;;13.10;87.69
4705;BME280;2366;51.332;6.610;2022-12-24T04:45:30;100819.78;;;13.10;87.85
4705;BME280;2366;51.332;6.610;2022-12-24T04:47:55;100828.31;;;13.03;87.66
4705;BME280;2366;51.332;6.610;2022-12-24T04:50:21;100822.88;;;12.91;87.75
4705;BME280;2366;51.332;6.610;2022-12-24T04:52:46;100827.34;;;12.78;87.88
4705;BME280;2366;51.332;6.610;2022-12-24T04:55:11;100834.25;;;12.68;87.87
4705;BME280;2366;51.332;6.610;2022-12-24T04:57:37;100837.56;;;12.71;88.58
4705;BME280;2366;51.332;6.610;2022-12-24T05:00:04;100841.72;;;12.76;88.89
4705;BME280;2366;51.332;6.610;2022-12-24T05:02:29;100841.94;;;12.85;88.76
4705;BME280;2366;51.332;6.610;2022-12-24T05:04:55;100854.72;;;12.93;89.00
4705;BME280;2366;51.332;6.610;2022-12-24T05:07:20;100856.22;;;12.97;88.85
4705;BME280;2366;51.332;6.610;2022-12-24T05:09:46;100845.56;;;12.97;88.93
4705;BME280;2366;51.332;6.610;2022-12-24T05:12:12;100843.00;;;12.95;88.64
4705;BME280;2366;51.332;6.610;2022-12-24T05:14:38;100841.94;;;12.98;88.55
4705;BME280;2366;51.332;6.610;2022-12-24T05:17:03;100848.84;;;13.01;88.44
4705;BME280;2366;51.332;6.610;2022-12-24T05:19:29;100847.25;;;12.98;87.99
4705;BME280;2366;51.332;6.610;2022-12-24T05:21:54;100853.22;;;13.02;87.91
4705;BME280;2366;51.332;6.610;2022-12-24T05:24:38;100855.03;;;13.01;88.23
4705;BME280;2366;51.332;6.610;2022-12-24T05:27:22;100853.00;;;13.05;87.76
4705;BME280;2366;51.332;6.610;2022-12-24T05:29:48;100861.63;;;13.08;87.44
4705;BME280;2366;51.332;6.610;2022-12-24T05:32:13;100852.91;;;13.06;87.07
4705;BME280;2366;51.332;6.610;2022-12-24T05:34:39;100855.56;;;13.06;87.14
4705;BME280;2366;51.332;6.610;2022-12-24T05:37:04;100853.22;;;13.02;87.03
4705;BME280;2366;51.332;6.610;2022-12-24T05:39:29;100864.94;;;12.99;87.10
4705;BME280;2366;51.332;6.610;2022-12-24T05:41:55;100865.88;;;12.98;87.36
4705;BME280;2366;51.332;6.610;2022-12-24T05:44:20;100865.88;;;12.98;87.22
4705;BME280;2366;51.332;6.610;2022-12-24T05:46:46;100868.34;;;13.01;86.78
4705;BME280;2366;51.332;6.610;2022-12-24T05:49:12;100875.88;;;13.07;87.21
4705;BME280;2366;51.332;6.610;2022-12-24T05:51:37;100871.13;;;13.12;86.75
4705;BME280;2366;51.332;6.610;2022-12-24T05:54:05;100870.78;;;13.04;85.96
4705;BME280;2366;51.332;6.610;2022-12-24T05:56:30;100875.59;;;12.99;86.19
4705;BME280;2366;51.332;6.610;2022-12-24T05:58:55;100874.53;;;13.02;86.29
4705;BME280;2366;51.332;6.610;2022-12-24T06:01:22;100883.56;;;12.99;86.26
4705;BME280;2366;51.332;6.610;2022-12-24T06:03:48;100879.28;;;12.97;86.03
4705;BME280;2366;51.332;6.610;2022-12-24T06:06:17;100889.41;;;12.91;85.80
4705;BME280;2366;51.332;6.610;2022-12-24T06:08:46;100889.94;;;12.84;85.43
4705;BME280;2366;51.332;6.610;2022-12-24T06:11:13;100892.28;;;12.88;86.04
4705;BME280;2366;51.332;6.610;2022-12-24T06:13:40;100892.72;;;12.95;85.35
4705;BME280;2366;51.332;6.610;2022-12-24T06:16:07;100907.31;;;13.02;85.82
4705;BME280;2366;51.332;6.610;2022-12-24T06:18:34;100904.53;;;13.04;85.41
4705;BME280;2366;51.332;6.610;2022-12-24T06:21:01;100901.00;;;13.03;85.62
4705;BME280;2366;51.332;6.610;2022-12-24T06:23:32;100897.06;;;12.96;85.10
4705;BME280;2366;51.332;6.610;2022-12-24T06:25:59;100908.31;;;12.74;84.84
4705;BME280;2366;51.332;6.610;2022-12-24T06:28:28;100913.41;;;12.64;85.06
4705;BME280;2366;51.332;6.610;2022-12-24T06:30:54;100908.50;;;12.58;85.70
4705;BME280;2366;51.332;6.610;2022-12-24T06:33:19;100907.19;;;12.51;85.96
4705;BME280;2366;51.332;6.610;2022-12-24T06:35:45;100908.50;;;12.58;86.39
4705;BME280;2366;51.332;6.610;2022-12-24T06:38:11;100912.22;;;12.68;86.93
4705;BME280;2366;51.332;6.610;2022-12-24T06:40:41;100911.06;;;12.72;86.37
4705;BME280;2366;51.332;6.610;2022-12-24T06:43:07;100909.56;;;12.68;86.17
4705;BME280;2366;51.332;6.610;2022-12-24T06:45:32;100912.66;;;12.62;85.62
4705;BME280;2366;51.332;6.610;2022-12-24T06:47:58;100911.00;;;12.47;85.40
4705;BME280;2366;51.332;6.610;2022-12-24T06:50:23;100910.69;;;12.39;86.15
4705;BME280;2366;51.332;6.610;2022-12-24T06:52:49;100932.88;;;12.38;86.25
4705;BME280;2366;51.332;6.610;2022-12-24T06:55:14;100937.34;;;12.37;86.45
4705;BME280;2366;51.332;6.610;2022-12-24T06:57:39;100941.81;;;12.37;86.62
4705;BME280;2366;51.332;6.610;2022-12-24T07:00:07;100938.19;;;12.38;86.51
4705;BME280;2366;51.332;6.610;2022-12-24T07:02:32;100953.53;;;12.47;86.80
4705;BME280;2366;51.332;6.610;2022-12-24T07:04:58;100944.63;;;12.48;86.91
4705;BME280;2366;51.332;6.610;2022-12-24T07:07:23;100939.44;;;12.59;87.33
4705;BME280;2366;51.332;6.610;2022-12-24T07:09:48;100941.94;;;12.62;85.86
4705;BME280;2366;51.332;6.610;2022-12-24T07:12:14;100934.88;;;12.61;86.15
4705;BME280;2366;51.332;6.610;2022-12-24T07:14:39;100937.09;;;12.54;86.25
4705;BME280;2366;51.332;6.610;2022-12-24T07:17:04;100939.53;;;12.45;85.87
4705;BME280;2366;51.332;6.610;2022-12-24T07:19:30;100946.69;;;12.30;85.39
4705;BME280;2366;51.332;6.610;2022-12-24T07:21:55;100949.38;;;12.16;85.50
4705;BME280;2366;51.332;6.610;2022-12-24T07:24:21;100945.72;;;12.04;85.71
4705;BME280;2366;51.332;6.610;2022-12-24T07:26:46;100948.00;;;11.96;86.27
4705;BME280;2366;51.332;6.610;2022-12-24T07:29:11;100960.88;;;11.87;86.38
4705;BME280;2366;51.332;6.610;2022-12-24T07:31:37;100954.88;;;11.84;86.42
4705;BME280;2366;51.332;6.610;2022-12-24T07:34:02;100955.00;;;11.82;86.72
4705;BME280;2366;51.332;6.610;2022-12-24T07:36:28;100965.81;;;11.79;86.11
4705;BME280;2366;51.332;6.610;2022-12-24T07:38:54;100966.19;;;11.73;86.18
4705;BME280;2366;51.332;6.610;2022-12-24T07:41:21;100966.28;;;11.71;86.31
4705;BME280;2366;51.332;6.610;2022-12-24T07:43:49;100984.31;;;11.66;87.03
4705;BME280;2366;51.332;6.610;2022-12-24T07:46:14;100979.09;;;11.79;87.69
4705;BME280;2366;51.332;6.610;2022-12-24T07:48:40;100992.13;;;11.98;87.87
4705;BME280;2366;51.332;6.610;2022-12-24T07:51:05;100986.50;;;12.03;87.37
4705;BME280;2366;51.332;6.610;2022-12-24T07:53:31;100995.63;;;12.13;87.38
4705;BME280;2366;51.332;6.610;2022-12-24T07:55:57;100996.84;;;12.22;87.05
4705;BME280;2366;51.332;6.610;2022-12-24T07:58:24;101003.81;;;12.37;87.33
4705;BME280;2366;51.332;6.610;2022-12-24T08:00:59;100998.56;;;12.50;87.12
4705;BME280;2366;51.332;6.610;2022-12-24T08:03:25;101004.81;;;12.49;86.09
4705;BME280;2366;51.332;6.610;2022-12-24T08:05:50;101006.28;;;12.40;85.59
4705;BME280;2366;51.332;6.610;2022-12-24T08:08:19;101015.16;;;12.26;85.40
4705;BME280;2366;51.332;6.610;2022-12-24T08:10:45;101013.16;;;12.16;85.14
4705;BME280;2366;51.332;6.610;2022-12-24T08:13:12;101009.97;;;12.10;85.35
4705;BME280;2366;51.332;6.610;2022-12-24T08:15:37;101031.22;;;12.10;85.37
4705;BME280;2366;51.332;6.610;2022-12-24T08:18:03;101049.91;;;12.09;85.60
4705;BME280;2366;51.332;6.610;2022-12-24T08:20:28;101045.91;;;12.16;85.52
4705;BME280;2366;51.332;6.610;2022-12-24T08:22:54;101037.56;;;12.22;85.04
4705;BME280;2366;51.332;6.610;2022-12-24T08:25:19;101054.81;;;12.29;85.51
4705;BME280;2366;51.332;6.610;2022-12-24T08:27:45;101056.09;;;12.51;86.29
4705;BME280;2366;51.332;6.610;2022-12-24T08:30:11;101055.31;;;12.78;86.33
4705;BME280;2366;51.332;6.610;2022-12-24T08:32:37;101065.88;;;12.92;85.07
4705;BME280;2366;51.332;6.610;2022-12-24T08:35:02;101063.47;;;13.02;85.05
4705;BME280;2366;51.332;6.610;2022-12-24T08:37:28;101066.59;;;13.08;83.70
4705;BME280;2366;51.332;6.610;2022-12-24T08:39:53;101071.91;;;13.08;83.74
4705;BME280;2366;51.332;6.610;2022-12-24T08:42:19;101067.88;;;13.15;84.32
4705;BME280;2366;51.332;6.610;2022-12-24T08:44:44;101076.53;;;13.19;83.61
4705;BME280;2366;51.332;6.610;2022-12-24T08:47:10;101079.81;;;13.23;83.31
4705;BME280;2366;51.332;6.610;2022-12-24T08:49:35;101072.34;;;13.29;83.78
4705;BME280;2366;51.332;6.610;2022-12-24T08:52:00;101073.19;;;13.30;83.28
4705;BME280;2366;51.332;6.610;2022-12-24T08:54:26;101090.34;;;13.39;83.42
4705;BME280;2366;51.332;6.610;2022-12-24T08:56:51;101080.53;;;13.39;82.44
4705;BME280;2366;51.332;6.610;2022-12-24T08:59:17;101081.78;;;13.33;82.38
4705;BME280;2366;51.332;6.610;2022-12-24T09:01:42;101084.91;;;13.40;83.29
4705;BME280;2366;51.332;6.610;2022-12-24T09:04:07;101085.78;;;13.41;82.68
4705;BME280;2366;51.332;6.610;2022-12-24T09:06:34;101089.50;;;13.38;81.92
4705;BME280;2366;51.332;6.610;2022-12-24T09:09:00;101093.75;;;13.41;82.26
4705;BME280;2366;51.332;6.610;2022-12-24T09:11:25;101098.88;;;13.44;82.74
4705;BME280;2366;51.332;6.610;2022-12-24T09:13:51;101101.97;;;13.50;82.47
4705;BME280;2366;51.332;6.610;2022-12-24T09:16:16;101102.22;;;13.60;82.18
4705;BME280;2366;51.332;6.610;2022-12-24T09:18:42;101107.84;;;13.68;82.08
4705;BME280;2366;51.332;6.610;2022-12-24T09:21:10;101117.06;;;13.77;82.19
4705;BME280;2366;51.332;6.610;2022-12-24T09:23:38;101113.22;;;13.94;82.04
4705;BME280;2366;51.332;6.610;2022-12-24T09:26:24;101129.63;;;14.01;81.23
4705;BME280;2366;51.332;6.610;2022-12-24T09:28:50;101124.53;;;13.97;81.22
4705;BME280;2366;51.332;6.610;2022-12-24T09:31:17;101135.59;;;13.91;80.91
4705;BME280;2366;51.332;6.610;2022-12-24T09:33:44;101137.19;;;13.94;81.38
4705;BME280;2366;51.332;6.610;2022-12-24T09:36:10;101148.41;;;13.99;80.99
4705;BME280;2366;51.332;6.610;2022-12-24T09:38:37;101148.63;;;14.09;80.88
4705;BME280;2366;51.332;6.610;2022-12-24T09:41:23;101157.47;;;14.09;79.91
4705;BME280;2366;51.332;6.610;2022-12-24T09:47:00;101160.03;;;14.11;79.55
4705;BME280;2366;51.332;6.610;2022-12-24T09:49:43;101163.34;;;14.14;79.74
4705;BME280;2366;51.332;6.610;2022-12-24T09:52:14;101174.22;;;14.24;79.81
4705;BME280;2366;51.332;6.610;2022-12-24T09:54:43;101172.31;;;14.26;78.54
4705;BME280;2366;51.332;6.610;2022-12-24T09:57:27;101167.06;;;14.37;79.66
4705;BME280;2366;51.332;6.610;2022-12-24T09:59:54;101171.66;;;14.48;79.08
4705;BME280;2366;51.332;6.610;2022-12-24T10:02:19;101177.88;;;14.62;79.08
4705;BME280;2366;51.332;6.610;2022-12-24T10:04:46;101164.81;;;14.70;78.44
4705;BME280;2366;51.332;6.610;2022-12-24T10:07:47;101176.56;;;14.80;77.79
4705;BME280;2366;51.332;6.610;2022-12-24T10:13:30;101180.06;;;14.81;77.26
4705;BME280;2366;51.332;6.610;2022-12-24T10:16:14;101184.81;;;14.64;76.41
4705;BME280;2366;51.332;6.610;2022-12-24T10:21:38;101187.47;;;14.38;77.94
4705;BME280;2366;51.332;6.610;2022-12-24T10:24:58;101196.41;;;14.37;78.06
4705;BME280;2366;51.332;6.610;2022-12-24T10:27:02;101191.50;;;14.44;78.33
4705;BME280;2366;51.332;6.610;2022-12-24T10:29:35;101185.00;;;14.48;78.16
4705;BME280;2366;51.332;6.610;2022-12-24T10:34:36;101176.78;;;14.51;77.73
4705;BME280;2366;51.332;6.610;2022-12-24T10:37:03;101180.09;;;14.42;76.78
4705;BME280;2366;51.332;6.610;2022-12-24T10:39:29;101188.13;;;14.29;77.23
4705;BME280;2366;51.332;6.610;2022-12-24T10:41:56;101181.03;;;14.15;77.18
4705;BME280;2366;51.332;6.610;2022-12-24T10:44:27;101187.53;;;14.11;77.61
4705;BME280;2366;51.332;6.610;2022-12-24T10:46:53;101181.47;;;14.09;77.74
4705;BME280;2366;51.332;6.610;2022-12-24T10:49:29;101167.28;;;14.22;78.26
4705;BME280;2366;51.332;6.610;2022-12-24T10:52:00;101166.66;;;14.31;77.50
4705;BME280;2366;51.332;6.610;2022-12-24T10:54:28;101157.59;;;14.21;76.44
4705;BME280;2366;51.332;6.610;2022-12-24T10:56:57;101170.81;;;14.22;77.35
4705;BME280;2366;51.332;6.610;2022-12-24T10:59:30;101161.75;;;14.12;77.08
4705;BME280;2366;51.332;6.610;2022-12-24T11:01:59;101171.88;;;14.07;76.84
4705;BME280;2366;51.332;6.610;2022-12-24T11:04:28;101176.56;;;14.16;77.10
4705;BME280;2366;51.332;6.610;2022-12-24T11:06:54;101175.81;;;14.39;77.56
4705;BME280;2366;51.332;6.610;2022-12-24T11:09:29;101177.22;;;14.58;76.45
4705;BME280;2366;51.332;6.610;2022-12-24T11:11:56;101178.72;;;14.75;76.09
4705;BME280;2366;51.332;6.610;2022-12-24T11:14:22;101178.00;;;14.97;76.10
4705;BME280;2366;51.332;6.610;2022-12-24T11:16:51;101175.44;;;14.95;74.00
4705;BME280;2366;51.332;6.610;2022-12-24T11:19:40;101172.47;;;14.87;74.28
4705;BME280;2366;51.332;6.610;2022-12-24T11:22:16;101172.88;;;14.94;74.35
4705;BME280;2366;51.332;6.610;2022-12-24T11:24:42;101174.16;;;15.01;74.25
4705;BME280;2366;51.332;6.610;2022-12-24T11:32:41;101172.66;;;14.97;73.85
4705;BME280;2366;51.332;6.610;2022-12-24T11:35:19;101180.97;;;15.05;73.13
4705;BME280;2366;51.332;6.610;2022-12-24T11:38:32;101186.28;;;15.18;73.43
4705;BME280;2366;51.332;6.610;2022-12-24T11:40:39;101184.91;;;15.12;72.94
4705;BME280;2366;51.332;6.610;2022-12-24T11:43:06;101175.84;;;15.02;72.63
4705;BME280;2366;51.332;6.610;2022-12-24T11:45:36;101190.25;;;15.12;72.84
4705;BME280;2366;51.332;6.610;2022-12-24T11:48:25;101180.50;;;15.11;71.74
4705;BME280;2366;51.332;6.610;2022-12-24T11:51:06;101191.28;;;15.23;72.44
4705;BME280;2366;51.332;6.610;2022-12-24T11:53:43;101189.16;;;15.39;71.80
4705;BME280;2366;51.332;6.610;2022-12-24T11:56:28;101182.53;;;15.45;71.48
4705;BME280;2366;51.332;6.610;2022-12-24T11:59:01;101176.56;;;15.41;68.46
4705;BME280;2366;51.332;6.610;2022-12-24T12:01:35;101170.31;;;15.53;70.39
4705;BME280;2366;51.332;6.610;2022-12-24T12:04:23;101180.19;;;15.88;70.00
4705;BME280;2366;51.332;6.610;2022-12-24T12:09:57;101180.38;;;16.20;69.49
4705;BME280;2366;51.332;6.610;2022-12-24T12:12:26;101181.59;;;16.39;68.59
4705;BME280;2366;51.332;6.610;2022-12-24T12:15:21;101182.69;;;16.36;68.09
4705;BME280;2366;51.332;6.610;2022-12-24T12:17:55;101191.81;;;16.45;66.77
4705;BME280;2366;51.332;6.610;2022-12-24T12:20:26;101188.19;;;16.46;67.42
4705;BME280;2366;51.332;6.610;2022-12-24T12:23:08;101188.31;;;16.56;66.83
4705;BME280;2366;51.332;6.610;2022-12-24T12:25:49;101191.84;;;16.68;66.12
4705;BME280;2366;51.332;6.610;2022-12-24T12:28:31;101190.50;;;16.62;65.77
4705;BME280;2366;51.332;6.610;2022-12-24T12:31:02;101193.41;;;16.48;66.18
4705;BME280;2366;51.332;6.610;2022-12-24T12:33:37;101192.91;;;16.42;66.23
4705;BME280;2366;51.332;6.610;2022-12-24T12:36:05;101203.50;;;16.44;66.49
4705;BME280;2366;51.332;6.610;2022-12-24T12:38:32;101216.63;;;16.36;66.46
4705;BME280;2366;51.332;6.610;2022-12-24T12:47:11;101219.22;;;16.60;64.98
4705;BME280;2366;51.332;6.610;2022-12-24T12:50:08;101221.03;;;16.71;65.41
4705;BME280;2366;51.332;6.610;2022-12-24T12:58:35;101228.44;;;16.78;64.53
4705;BME280;2366;51.332;6.610;2022-12-24T13:01:08;101214.81;;;16.59;63.57
4705;BME280;2366;51.332;6.610;2022-12-24T13:06:38;101231.34;;;16.41;64.01
4705;BME280;2366;51.332;6.610;2022-12-24T13:20:25;101227.94;;;15.69;63.65
4705;BME280;2366;51.332;6.610;2022-12-24T13:23:02;101232.09;;;15.49;64.93
4705;BME280;2366;51.332;6.610;2022-12-24T13:25:39;101237.50;;;15.36;64.88
4705;BME280;2366;51.332;6.610;2022-12-24T13:30:47;101231.47;;;15.08;65.68
4705;BME280;2366;51.332;6.610;2022-12-24T13:36:12;101229.28;;;14.89;66.13
4705;BME280;2366;51.332;6.610;2022-12-24T13:38:43;101230.78;;;14.81;66.54
4705;BME280;2366;51.332;6.610;2022-12-24T13:47:02;101239.25;;;14.62;67.28
4705;BME280;2366;51.332;6.610;2022-12-24T13:49:38;101237.63;;;14.59;67.40
4705;BME280;2366;51.332;6.610;2022-12-24T14:00:24;101240.31;;;13.93;69.43
4705;BME280;2366;51.332;6.610;2022-12-24T14:08:15;101248.34;;;13.79;69.96
4705;BME280;2366;51.332;6.610;2022-12-24T14:10:45;101244.97;;;13.77;69.97
4705;BME280;2366;51.332;6.610;2022-12-24T14:13:54;101251.34;;;13.74;69.80
4705;BME280;2366;51.332;6.610;2022-12-24T14:16:42;101253.47;;;13.69;69.69
4705;BME280;2366;51.332;6.610;2022-12-24T14:19:19;101254.16;;;13.59;70.14
4705;BME280;2366;51.332;6.610;2022-12-24T14:21:54;101262.75;;;13.49;70.42
4705;BME280;2366;51.332;6.610;2022-12-24T14:24:24;101273.41;;;13.49;70.63
4705;BME280;2366;51.332;6.610;2022-12-24T14:26:54;101265.22;;;13.52;70.46
4705;BME280;2366;51.332;6.610;2022-12-24T14:29:30;101272.81;;;13.59;70.50
4705;BME280;2366;51.332;6.610;2022-12-24T14:31:58;101286.22;;;13.57;70.74
4705;BME280;2366;51.332;6.610;2022-12-24T14:34:24;101287.50;;;13.51;70.61
4705;BME280;2366;51.332;6.610;2022-12-24T14:36:53;101287.88;;;13.45;71.05
4705;BME280;2366;51.332;6.610;2022-12-24T14:39:31;101293.38;;;13.42;71.22
4705;BME280;2366;51.332;6.610;2022-12-24T14:42:24;101288.28;;;13.39;71.33
4705;BME280;2366;51.332;6.610;2022-12-24T14:45:17;101294.66;;;13.37;71.66
4705;BME280;2366;51.332;6.610;2022-12-24T14:50:38;101291.91;;;13.38;72.29